sensor_id;sensor_type;location;lat;lon;timestamp;P1;durP1;ratioP1;P2;durP2;ratioP2
16480;SDS011;44634;54.110;12.138;2023-02-20T00:01:22;1.90;;;1.67;;
16480;SDS011;44634;54.110;12.138;2023-02-20T00:03:51;5.13;;;1.97;;
16480;SDS011;44634;54.110;12.138;2023-02-20T00:06:21;2.50;;;1.37;;
16480;SDS011;44634;54.110;12.138;2023-02-20T00:08:48;6.53;;;2.33;;
16480;SDS011;44634;54.110;12.138;2023-02-20T00:11:16;8.57;;;2.03;;
16480;SDS011;44634;54.110;12.138;2023-02-20T00:13:44;3.23;;;1.30;;
16480;SDS011;44634;54.110;12.138;2023-02-20T00:16:13;1.20;;;1.10;;
16480;SDS011;44634;54.110;12.138;2023-02-20T00:18:41;6.10;;;1.53;;
16480;SDS011;44634;54.110;12.138;2023-02-20T00:21:10;3.53;;;1.43;;
16480;SDS011;44634;54.110;12.138;2023-02-20T00:23:39;4.83;;;1.60;;
16480;SDS011;44634;54.110;12.138;2023-02-20T00:26:07;5.87;;;1.57;;
16480;SDS011;44634;54.110;12.138;2023-02-20T00:28:37;3.57;;;1.43;;
16480;SDS011;44634;54.110;12.138;2023-02-20T00:31:05;2.70;;;1.37;;
16480;SDS011;44634;54.110;12.138;2023-02-20T00:33:33;4.23;;;1.33;;
16480;SDS011;44634;54.110;12.138;2023-02-20T00:36:02;3.63;;;1.33;;
16480;SDS011;44634;54.110;12.138;2023-02-20T00:38:30;1.60;;;1.37;;
16480;SDS011;44634;54.110;12.138;2023-02-20T00:40:59;4.97;;;2.00;;
16480;SDS011;44634;54.110;12.138;2023-02-20T00:43:27;2.20;;;1.03;;
16480;SDS011;44634;54.110;12.138;2023-02-20T00:45:56;1.67;;;1.30;;
16480;SDS011;44634;54.110;12.138;2023-02-20T00:48:24;3.80;;;1.50;;
16480;SDS011;44634;54.110;12.138;2023-02-20T00:50:52;3.70;;;1.73;;
16480;SDS011;44634;54.110;12.138;2023-02-20T00:53:20;4.20;;;1.53;;
16480;SDS011;44634;54.110;12.138;2023-02-20T00:55:47;2.03;;;1.30;;
16480;SDS011;44634;54.110;12.138;2023-02-20T00:58:16;1.47;;;1.37;;
16480;SDS011;44634;54.110;12.138;2023-02-20T01:00:44;1.53;;;1.33;;
16480;SDS011;44634;54.110;12.138;2023-02-20T01:03:12;6.33;;;2.03;;
16480;SDS011;44634;54.110;12.138;2023-02-20T01:05:40;1.67;;;1.53;;
16480;SDS011;44634;54.110;12.138;2023-02-20T01:08:07;4.27;;;1.40;;
16480;SDS011;44634;54.110;12.138;2023-02-20T01:10:35;5.10;;;1.87;;
16480;SDS011;44634;54.110;12.138;2023-02-20T01:13:03;2.70;;;1.77;;
16480;SDS011;44634;54.110;12.138;2023-02-20T01:15:32;1.37;;;1.30;;
16480;SDS011;44634;54.110;12.138;2023-02-20T01:18:00;2.27;;;2.10;;
16480;SDS011;44634;54.110;12.138;2023-02-20T01:20:28;4.17;;;2.07;;
16480;SDS011;44634;54.110;12.138;2023-02-20T01:22:55;1.70;;;1.57;;
16480;SDS011;44634;54.110;12.138;2023-02-20T01:25:23;1.77;;;1.67;;
16480;SDS011;44634;54.110;12.138;2023-02-20T01:27:51;1.47;;;1.37;;
16480;SDS011;44634;54.110;12.138;2023-02-20T01:30:19;6.90;;;2.40;;
16480;SDS011;44634;54.110;12.138;2023-02-20T01:32:48;3.17;;;1.60;;
16480;SDS011;44634;54.110;12.138;2023-02-20T01:35:16;2.60;;;1.67;;
16480;SDS011;44634;54.110;12.138;2023-02-20T01:37:43;2.43;;;1.77;;
16480;SDS011;44634;54.110;12.138;2023-02-20T01:40:13;2.50;;;1.90;;
16480;SDS011;44634;54.110;12.138;2023-02-20T01:42:42;4.83;;;2.10;;
16480;SDS011;44634;54.110;12.138;2023-02-20T01:45:17;2.53;;;1.73;;
16480;SDS011;44634;54.110;12.138;2023-02-20T01:47:55;7.53;;;2.37;;
16480;SDS011;44634;54.110;12.138;2023-02-20T01:50:24;3.17;;;2.00;;
16480;SDS011;44634;54.110;12.138;2023-02-20T01:52:56;3.47;;;2.03;;
16480;SDS011;44634;54.110;12.138;2023-02-20T01:55:29;2.60;;;1.83;;
16480;SDS011;44634;54.110;12.138;2023-02-20T01:58:02;2.40;;;1.60;;
16480;SDS011;44634;54.110;12.138;2023-02-20T02:00:36;2.30;;;1.97;;
16480;SDS011;44634;54.110;12.138;2023-02-20T02:03:12;2.77;;;1.60;;
16480;SDS011;44634;54.110;12.138;2023-02-20T02:05:43;4.40;;;1.70;;
16480;SDS011;44634;54.110;12.138;2023-02-20T02:08:15;7.03;;;1.97;;
16480;SDS011;44634;54.110;12.138;2023-02-20T02:10:47;5.27;;;2.47;;
16480;SDS011;44634;54.110;12.138;2023-02-20T02:13:19;1.67;;;1.57;;
16480;SDS011;44634;54.110;12.138;2023-02-20T02:15:49;3.17;;;1.90;;
16480;SDS011;44634;54.110;12.138;2023-02-20T02:24:40;3.93;;;1.77;;
16480;SDS011;44634;54.110;12.138;2023-02-20T02:30:45;1.80;;;1.40;;
16480;SDS011;44634;54.110;12.138;2023-02-20T02:36:34;4.23;;;2.23;;
16480;SDS011;44634;54.110;12.138;2023-02-20T02:39:12;2.30;;;2.10;;
16480;SDS011;44634;54.110;12.138;2023-02-20T02:41:48;2.40;;;2.07;;
16480;SDS011;44634;54.110;12.138;2023-02-20T02:44:22;1.93;;;1.80;;
16480;SDS011;44634;54.110;12.138;2023-02-20T02:46:57;7.83;;;2.37;;
16480;SDS011;44634;54.110;12.138;2023-02-20T02:49:30;1.87;;;1.70;;
16480;SDS011;44634;54.110;12.138;2023-02-20T02:52:05;2.90;;;1.73;;
16480;SDS011;44634;54.110;12.138;2023-02-20T02:54:35;2.70;;;2.20;;
16480;SDS011;44634;54.110;12.138;2023-02-20T02:57:17;2.30;;;1.83;;
16480;SDS011;44634;54.110;12.138;2023-02-20T02:59:49;3.43;;;2.07;;
16480;SDS011;44634;54.110;12.138;2023-02-20T03:02:21;2.13;;;1.90;;
16480;SDS011;44634;54.110;12.138;2023-02-20T03:04:50;2.53;;;2.33;;
16480;SDS011;44634;54.110;12.138;2023-02-20T03:07:21;3.47;;;2.53;;
16480;SDS011;44634;54.110;12.138;2023-02-20T03:09:51;3.70;;;2.77;;
16480;SDS011;44634;54.110;12.138;2023-02-20T03:12:23;2.03;;;1.83;;
16480;SDS011;44634;54.110;12.138;2023-02-20T03:14:55;4.73;;;2.97;;
16480;SDS011;44634;54.110;12.138;2023-02-20T03:17:45;3.33;;;2.37;;
16480;SDS011;44634;54.110;12.138;2023-02-20T03:20:18;4.67;;;2.80;;
16480;SDS011;44634;54.110;12.138;2023-02-20T03:22:51;4.00;;;2.37;;
16480;SDS011;44634;54.110;12.138;2023-02-20T03:25:24;3.00;;;2.40;;
16480;SDS011;44634;54.110;12.138;2023-02-20T03:27:55;4.77;;;3.10;;
16480;SDS011;44634;54.110;12.138;2023-02-20T03:30:27;3.10;;;2.60;;
16480;SDS011;44634;54.110;12.138;2023-02-20T03:32:57;3.63;;;2.50;;
16480;SDS011;44634;54.110;12.138;2023-02-20T03:35:49;2.53;;;2.33;;
16480;SDS011;44634;54.110;12.138;2023-02-20T03:38:39;3.53;;;3.00;;
16480;SDS011;44634;54.110;12.138;2023-02-20T03:41:26;5.30;;;3.40;;
16480;SDS011;44634;54.110;12.138;2023-02-20T03:44:14;2.97;;;2.63;;
16480;SDS011;44634;54.110;12.138;2023-02-20T03:46:45;6.10;;;3.90;;
16480;SDS011;44634;54.110;12.138;2023-02-20T03:49:16;5.93;;;3.13;;
16480;SDS011;44634;54.110;12.138;2023-02-20T03:51:47;3.17;;;2.87;;
16480;SDS011;44634;54.110;12.138;2023-02-20T03:54:25;3.40;;;2.50;;
16480;SDS011;44634;54.110;12.138;2023-02-20T03:56:56;3.07;;;2.77;;
16480;SDS011;44634;54.110;12.138;2023-02-20T03:59:29;6.70;;;3.37;;
16480;SDS011;44634;54.110;12.138;2023-02-20T04:02:01;5.67;;;3.37;;
16480;SDS011;44634;54.110;12.138;2023-02-20T04:04:33;6.83;;;3.33;;
16480;SDS011;44634;54.110;12.138;2023-02-20T04:07:05;7.33;;;4.37;;
16480;SDS011;44634;54.110;12.138;2023-02-20T04:09:38;8.13;;;4.00;;
16480;SDS011;44634;54.110;12.138;2023-02-20T04:12:11;3.77;;;3.47;;
16480;SDS011;44634;54.110;12.138;2023-02-20T04:14:45;8.67;;;4.27;;
16480;SDS011;44634;54.110;12.138;2023-02-20T04:17:19;4.97;;;4.00;;
16480;SDS011;44634;54.110;12.138;2023-02-20T04:19:50;4.07;;;3.37;;
16480;SDS011;44634;54.110;12.138;2023-02-20T04:22:19;5.07;;;3.80;;
16480;SDS011;44634;54.110;12.138;2023-02-20T04:24:53;6.63;;;4.00;;
16480;SDS011;44634;54.110;12.138;2023-02-20T04:27:24;10.60;;;3.20;;
16480;SDS011;44634;54.110;12.138;2023-02-20T04:29:51;9.17;;;3.53;;
16480;SDS011;44634;54.110;12.138;2023-02-20T04:32:19;5.93;;;4.23;;
16480;SDS011;44634;54.110;12.138;2023-02-20T04:34:47;7.00;;;4.90;;
16480;SDS011;44634;54.110;12.138;2023-02-20T04:37:16;6.53;;;3.67;;
16480;SDS011;44634;54.110;12.138;2023-02-20T04:39:45;7.17;;;3.90;;
16480;SDS011;44634;54.110;12.138;2023-02-20T04:42:15;4.50;;;3.90;;
16480;SDS011;44634;54.110;12.138;2023-02-20T04:44:42;14.13;;;5.53;;
16480;SDS011;44634;54.110;12.138;2023-02-20T04:47:11;7.30;;;3.60;;
16480;SDS011;44634;54.110;12.138;2023-02-20T04:49:41;10.10;;;3.90;;
16480;SDS011;44634;54.110;12.138;2023-02-20T04:52:09;6.30;;;4.20;;
16480;SDS011;44634;54.110;12.138;2023-02-20T04:54:37;3.53;;;3.20;;
16480;SDS011;44634;54.110;12.138;2023-02-20T04:57:05;7.80;;;4.50;;
16480;SDS011;44634;54.110;12.138;2023-02-20T04:59:34;6.17;;;4.30;;
16480;SDS011;44634;54.110;12.138;2023-02-20T05:02:01;3.87;;;3.50;;
16480;SDS011;44634;54.110;12.138;2023-02-20T05:04:29;7.00;;;4.67;;
16480;SDS011;44634;54.110;12.138;2023-02-20T05:06:57;5.13;;;3.50;;
16480;SDS011;44634;54.110;12.138;2023-02-20T05:09:25;7.37;;;4.30;;
16480;SDS011;44634;54.110;12.138;2023-02-20T05:11:54;6.10;;;4.33;;
16480;SDS011;44634;54.110;12.138;2023-02-20T05:14:22;3.53;;;3.20;;
16480;SDS011;44634;54.110;12.138;2023-02-20T05:16:51;8.90;;;4.87;;
16480;SDS011;44634;54.110;12.138;2023-02-20T05:19:19;5.83;;;3.57;;
16480;SDS011;44634;54.110;12.138;2023-02-20T05:21:47;6.67;;;3.97;;
16480;SDS011;44634;54.110;12.138;2023-02-20T05:24:32;5.37;;;3.57;;
16480;SDS011;44634;54.110;12.138;2023-02-20T05:27:00;7.03;;;3.50;;
16480;SDS011;44634;54.110;12.138;2023-02-20T05:29:28;4.17;;;3.67;;
16480;SDS011;44634;54.110;12.138;2023-02-20T05:31:57;5.23;;;4.10;;
16480;SDS011;44634;54.110;12.138;2023-02-20T05:34:24;5.17;;;3.77;;
16480;SDS011;44634;54.110;12.138;2023-02-20T05:36:52;7.23;;;4.03;;
16480;SDS011;44634;54.110;12.138;2023-02-20T05:39:22;9.90;;;4.97;;
16480;SDS011;44634;54.110;12.138;2023-02-20T05:41:50;8.47;;;4.70;;
16480;SDS011;44634;54.110;12.138;2023-02-20T05:44:18;7.30;;;5.27;;
16480;SDS011;44634;54.110;12.138;2023-02-20T05:46:45;5.83;;;4.63;;
16480;SDS011;44634;54.110;12.138;2023-02-20T05:49:15;6.47;;;4.37;;
16480;SDS011;44634;54.110;12.138;2023-02-20T05:51:43;8.93;;;5.07;;
16480;SDS011;44634;54.110;12.138;2023-02-20T05:54:11;6.07;;;3.80;;
16480;SDS011;44634;54.110;12.138;2023-02-20T05:56:40;11.60;;;6.30;;
16480;SDS011;44634;54.110;12.138;2023-02-20T05:59:07;7.57;;;4.73;;
16480;SDS011;44634;54.110;12.138;2023-02-20T06:01:35;6.67;;;3.80;;
16480;SDS011;44634;54.110;12.138;2023-02-20T06:04:03;8.83;;;5.83;;
16480;SDS011;44634;54.110;12.138;2023-02-20T06:06:34;8.43;;;5.33;;
16480;SDS011;44634;54.110;12.138;2023-02-20T06:09:03;6.33;;;4.27;;
16480;SDS011;44634;54.110;12.138;2023-02-20T06:11:33;7.73;;;5.77;;
16480;SDS011;44634;54.110;12.138;2023-02-20T06:14:01;5.03;;;4.43;;
16480;SDS011;44634;54.110;12.138;2023-02-20T06:16:30;6.73;;;4.97;;
16480;SDS011;44634;54.110;12.138;2023-02-20T06:18:58;12.50;;;5.47;;
16480;SDS011;44634;54.110;12.138;2023-02-20T06:21:26;5.67;;;4.77;;
16480;SDS011;44634;54.110;12.138;2023-02-20T06:23:55;6.47;;;4.40;;
16480;SDS011;44634;54.110;12.138;2023-02-20T06:26:23;14.10;;;6.33;;
16480;SDS011;44634;54.110;12.138;2023-02-20T06:28:51;9.67;;;5.50;;
16480;SDS011;44634;54.110;12.138;2023-02-20T06:31:20;11.60;;;6.73;;
16480;SDS011;44634;54.110;12.138;2023-02-20T06:33:49;7.70;;;5.33;;
16480;SDS011;44634;54.110;12.138;2023-02-20T06:36:20;8.33;;;6.83;;
16480;SDS011;44634;54.110;12.138;2023-02-20T06:38:49;5.83;;;4.63;;
16480;SDS011;44634;54.110;12.138;2023-02-20T06:41:19;8.73;;;5.30;;
16480;SDS011;44634;54.110;12.138;2023-02-20T06:43:46;12.50;;;6.50;;
16480;SDS011;44634;54.110;12.138;2023-02-20T06:46:14;10.50;;;6.33;;
16480;SDS011;44634;54.110;12.138;2023-02-20T06:48:42;5.20;;;4.60;;
16480;SDS011;44634;54.110;12.138;2023-02-20T06:51:11;5.70;;;4.23;;
16480;SDS011;44634;54.110;12.138;2023-02-20T06:53:39;9.30;;;5.80;;
16480;SDS011;44634;54.110;12.138;2023-02-20T06:56:07;8.63;;;5.50;;
16480;SDS011;44634;54.110;12.138;2023-02-20T06:58:38;7.77;;;5.47;;
16480;SDS011;44634;54.110;12.138;2023-02-20T07:01:07;10.43;;;6.73;;
16480;SDS011;44634;54.110;12.138;2023-02-20T07:03:36;7.87;;;5.83;;
16480;SDS011;44634;54.110;12.138;2023-02-20T07:06:03;13.10;;;7.77;;
16480;SDS011;44634;54.110;12.138;2023-02-20T07:08:31;9.20;;;6.70;;
16480;SDS011;44634;54.110;12.138;2023-02-20T07:10:59;8.10;;;6.53;;
16480;SDS011;44634;54.110;12.138;2023-02-20T07:13:27;12.00;;;6.00;;
16480;SDS011;44634;54.110;12.138;2023-02-20T07:15:56;8.37;;;6.53;;
16480;SDS011;44634;54.110;12.138;2023-02-20T07:18:24;6.73;;;5.30;;
16480;SDS011;44634;54.110;12.138;2023-02-20T07:20:52;8.47;;;7.53;;
16480;SDS011;44634;54.110;12.138;2023-02-20T07:23:21;9.23;;;5.80;;
16480;SDS011;44634;54.110;12.138;2023-02-20T07:25:49;9.83;;;5.97;;
16480;SDS011;44634;54.110;12.138;2023-02-20T07:28:17;7.13;;;5.00;;
16480;SDS011;44634;54.110;12.138;2023-02-20T07:30:46;9.63;;;6.77;;
16480;SDS011;44634;54.110;12.138;2023-02-20T07:33:16;8.67;;;6.70;;
16480;SDS011;44634;54.110;12.138;2023-02-20T07:35:44;5.93;;;5.27;;
16480;SDS011;44634;54.110;12.138;2023-02-20T07:38:12;7.00;;;6.30;;
16480;SDS011;44634;54.110;12.138;2023-02-20T07:40:40;12.93;;;8.03;;
16480;SDS011;44634;54.110;12.138;2023-02-20T07:43:08;12.80;;;6.13;;
16480;SDS011;44634;54.110;12.138;2023-02-20T07:45:36;8.77;;;6.40;;
16480;SDS011;44634;54.110;12.138;2023-02-20T07:48:05;10.33;;;8.20;;
16480;SDS011;44634;54.110;12.138;2023-02-20T07:50:34;12.40;;;7.47;;
16480;SDS011;44634;54.110;12.138;2023-02-20T07:53:01;13.10;;;7.07;;
16480;SDS011;44634;54.110;12.138;2023-02-20T07:55:29;10.60;;;6.77;;
16480;SDS011;44634;54.110;12.138;2023-02-20T07:57:57;6.30;;;5.10;;
16480;SDS011;44634;54.110;12.138;2023-02-20T08:00:26;10.57;;;6.33;;
16480;SDS011;44634;54.110;12.138;2023-02-20T08:02:54;7.17;;;5.57;;
16480;SDS011;44634;54.110;12.138;2023-02-20T08:05:22;10.50;;;8.00;;
16480;SDS011;44634;54.110;12.138;2023-02-20T08:07:51;8.83;;;5.50;;
16480;SDS011;44634;54.110;12.138;2023-02-20T08:10:22;8.30;;;5.90;;
16480;SDS011;44634;54.110;12.138;2023-02-20T08:12:54;5.00;;;4.50;;
16480;SDS011;44634;54.110;12.138;2023-02-20T08:15:22;9.00;;;6.37;;
16480;SDS011;44634;54.110;12.138;2023-02-20T08:17:50;10.63;;;7.30;;
16480;SDS011;44634;54.110;12.138;2023-02-20T08:20:18;12.07;;;5.77;;
16480;SDS011;44634;54.110;12.138;2023-02-20T08:22:48;11.30;;;6.63;;
16480;SDS011;44634;54.110;12.138;2023-02-20T08:25:18;9.93;;;6.33;;
16480;SDS011;44634;54.110;12.138;2023-02-20T08:27:46;8.87;;;7.17;;
16480;SDS011;44634;54.110;12.138;2023-02-20T08:30:16;9.70;;;6.60;;
16480;SDS011;44634;54.110;12.138;2023-02-20T08:32:49;13.37;;;8.50;;
16480;SDS011;44634;54.110;12.138;2023-02-20T08:35:18;8.03;;;6.77;;
16480;SDS011;44634;54.110;12.138;2023-02-20T08:37:46;7.83;;;6.07;;
16480;SDS011;44634;54.110;12.138;2023-02-20T08:40:14;11.03;;;7.73;;
16480;SDS011;44634;54.110;12.138;2023-02-20T08:42:44;9.77;;;7.37;;
16480;SDS011;44634;54.110;12.138;2023-02-20T08:45:13;7.00;;;5.93;;
16480;SDS011;44634;54.110;12.138;2023-02-20T08:47:40;12.30;;;7.33;;
16480;SDS011;44634;54.110;12.138;2023-02-20T08:50:08;9.33;;;6.70;;
16480;SDS011;44634;54.110;12.138;2023-02-20T08:52:36;13.17;;;6.70;;
16480;SDS011;44634;54.110;12.138;2023-02-20T08:55:04;8.23;;;5.13;;
16480;SDS011;44634;54.110;12.138;2023-02-20T08:57:32;13.77;;;7.60;;
16480;SDS011;44634;54.110;12.138;2023-02-20T09:00:01;8.87;;;6.97;;
16480;SDS011;44634;54.110;12.138;2023-02-20T09:02:31;14.27;;;5.93;;
16480;SDS011;44634;54.110;12.138;2023-02-20T09:04:59;8.47;;;6.07;;
16480;SDS011;44634;54.110;12.138;2023-02-20T09:07:27;8.80;;;6.33;;
16480;SDS011;44634;54.110;12.138;2023-02-20T09:09:54;9.70;;;6.93;;
16480;SDS011;44634;54.110;12.138;2023-02-20T09:12:22;12.20;;;8.23;;
16480;SDS011;44634;54.110;12.138;2023-02-20T09:14:50;14.70;;;8.87;;
16480;SDS011;44634;54.110;12.138;2023-02-20T09:17:19;9.03;;;6.57;;
16480;SDS011;44634;54.110;12.138;2023-02-20T09:19:47;10.33;;;7.47;;
16480;SDS011;44634;54.110;12.138;2023-02-20T09:22:15;14.27;;;8.70;;
16480;SDS011;44634;54.110;12.138;2023-02-20T09:24:47;11.67;;;7.77;;
16480;SDS011;44634;54.110;12.138;2023-02-20T09:27:15;12.53;;;9.13;;
16480;SDS011;44634;54.110;12.138;2023-02-20T09:29:43;12.13;;;7.43;;
16480;SDS011;44634;54.110;12.138;2023-02-20T09:32:11;13.53;;;8.83;;
16480;SDS011;44634;54.110;12.138;2023-02-20T09:34:41;15.60;;;9.37;;
16480;SDS011;44634;54.110;12.138;2023-02-20T09:37:10;12.80;;;8.13;;
16480;SDS011;44634;54.110;12.138;2023-02-20T09:39:38;9.87;;;6.43;;
16480;SDS011;44634;54.110;12.138;2023-02-20T09:42:14;11.20;;;6.70;;
16480;SDS011;44634;54.110;12.138;2023-02-20T09:44:52;9.93;;;7.97;;
16480;SDS011;44634;54.110;12.138;2023-02-20T09:47:31;11.47;;;7.43;;
16480;SDS011;44634;54.110;12.138;2023-02-20T09:50:11;15.07;;;9.30;;
16480;SDS011;44634;54.110;12.138;2023-02-20T09:52:42;11.37;;;9.03;;
16480;SDS011;44634;54.110;12.138;2023-02-20T09:55:17;16.50;;;9.53;;
16480;SDS011;44634;54.110;12.138;2023-02-20T09:57:47;16.50;;;10.20;;
16480;SDS011;44634;54.110;12.138;2023-02-20T10:00:20;19.23;;;10.20;;
16480;SDS011;44634;54.110;12.138;2023-02-20T10:02:54;13.40;;;7.73;;
16480;SDS011;44634;54.110;12.138;2023-02-20T10:05:33;15.07;;;8.40;;
16480;SDS011;44634;54.110;12.138;2023-02-20T10:08:02;15.37;;;11.23;;
16480;SDS011;44634;54.110;12.138;2023-02-20T10:10:31;18.47;;;10.53;;
16480;SDS011;44634;54.110;12.138;2023-02-20T10:13:06;18.23;;;9.07;;
16480;SDS011;44634;54.110;12.138;2023-02-20T10:15:48;16.17;;;10.27;;
16480;SDS011;44634;54.110;12.138;2023-02-20T10:18:27;17.10;;;9.03;;
16480;SDS011;44634;54.110;12.138;2023-02-20T10:21:11;14.90;;;10.10;;
16480;SDS011;44634;54.110;12.138;2023-02-20T10:23:45;15.63;;;9.27;;
16480;SDS011;44634;54.110;12.138;2023-02-20T10:26:31;15.27;;;10.13;;
16480;SDS011;44634;54.110;12.138;2023-02-20T10:29:05;19.50;;;8.63;;
16480;SDS011;44634;54.110;12.138;2023-02-20T10:31:43;15.53;;;9.70;;
16480;SDS011;44634;54.110;12.138;2023-02-20T10:34:15;13.57;;;8.10;;
16480;SDS011;44634;54.110;12.138;2023-02-20T10:36:49;10.60;;;8.53;;
16480;SDS011;44634;54.110;12.138;2023-02-20T10:39:20;13.10;;;7.97;;
16480;SDS011;44634;54.110;12.138;2023-02-20T10:41:50;11.97;;;7.77;;
16480;SDS011;44634;54.110;12.138;2023-02-20T10:44:22;14.50;;;8.20;;
16480;SDS011;44634;54.110;12.138;2023-02-20T10:46:59;13.63;;;8.53;;
16480;SDS011;44634;54.110;12.138;2023-02-20T10:49:32;12.97;;;10.50;;
16480;SDS011;44634;54.110;12.138;2023-02-20T10:52:09;13.50;;;8.83;;
16480;SDS011;44634;54.110;12.138;2023-02-20T10:55:01;18.00;;;8.87;;
16480;SDS011;44634;54.110;12.138;2023-02-20T10:57:36;17.87;;;9.93;;
16480;SDS011;44634;54.110;12.138;2023-02-20T11:00:10;8.57;;;6.50;;
16480;SDS011;44634;54.110;12.138;2023-02-20T11:02:43;9.47;;;6.83;;
16480;SDS011;44634;54.110;12.138;2023-02-20T11:05:15;10.63;;;6.93;;
16480;SDS011;44634;54.110;12.138;2023-02-20T11:07:48;13.83;;;6.07;;
16480;SDS011;44634;54.110;12.138;2023-02-20T11:10:16;16.43;;;7.67;;
16480;SDS011;44634;54.110;12.138;2023-02-20T11:12:45;10.70;;;5.57;;
16480;SDS011;44634;54.110;12.138;2023-02-20T11:15:17;10.73;;;6.63;;
16480;SDS011;44634;54.110;12.138;2023-02-20T11:17:48;15.70;;;5.00;;
16480;SDS011;44634;54.110;12.138;2023-02-20T11:20:38;13.67;;;5.17;;
16480;SDS011;44634;54.110;12.138;2023-02-20T11:23:09;8.10;;;5.27;;
16480;SDS011;44634;54.110;12.138;2023-02-20T11:25:37;13.17;;;6.67;;
16480;SDS011;44634;54.110;12.138;2023-02-20T11:28:08;7.33;;;5.03;;
16480;SDS011;44634;54.110;12.138;2023-02-20T11:30:43;7.77;;;4.43;;
16480;SDS011;44634;54.110;12.138;2023-02-20T11:33:15;8.60;;;3.93;;
16480;SDS011;44634;54.110;12.138;2023-02-20T11:35:45;7.07;;;4.73;;
16480;SDS011;44634;54.110;12.138;2023-02-20T11:47:10;5.87;;;3.60;;
16480;SDS011;44634;54.110;12.138;2023-02-20T11:49:45;7.13;;;2.67;;
16480;SDS011;44634;54.110;12.138;2023-02-20T11:52:17;7.10;;;3.30;;
16480;SDS011;44634;54.110;12.138;2023-02-20T11:54:49;8.87;;;2.93;;
16480;SDS011;44634;54.110;12.138;2023-02-20T11:57:36;4.50;;;3.07;;
16480;SDS011;44634;54.110;12.138;2023-02-20T12:00:11;7.13;;;3.30;;
16480;SDS011;44634;54.110;12.138;2023-02-20T12:02:49;4.03;;;2.07;;
16480;SDS011;44634;54.110;12.138;2023-02-20T12:05:19;6.03;;;4.53;;
16480;SDS011;44634;54.110;12.138;2023-02-20T12:07:56;10.73;;;3.63;;
16480;SDS011;44634;54.110;12.138;2023-02-20T12:10:37;14.13;;;3.57;;
16480;SDS011;44634;54.110;12.138;2023-02-20T12:13:10;7.63;;;3.93;;
16480;SDS011;44634;54.110;12.138;2023-02-20T12:15:40;5.97;;;3.20;;
16480;SDS011;44634;54.110;12.138;2023-02-20T12:21:03;4.93;;;3.20;;
16480;SDS011;44634;54.110;12.138;2023-02-20T12:23:47;7.17;;;3.20;;
16480;SDS011;44634;54.110;12.138;2023-02-20T12:26:24;9.47;;;3.40;;
16480;SDS011;44634;54.110;12.138;2023-02-20T12:29:05;4.27;;;2.50;;
16480;SDS011;44634;54.110;12.138;2023-02-20T12:31:50;12.93;;;4.30;;
16480;SDS011;44634;54.110;12.138;2023-02-20T12:34:29;10.73;;;3.10;;
16480;SDS011;44634;54.110;12.138;2023-02-20T12:37:11;11.47;;;4.10;;
16480;SDS011;44634;54.110;12.138;2023-02-20T12:39:48;12.00;;;4.23;;
16480;SDS011;44634;54.110;12.138;2023-02-20T12:42:27;10.40;;;2.80;;
16480;SDS011;44634;54.110;12.138;2023-02-20T12:45:15;8.07;;;3.37;;
16480;SDS011;44634;54.110;12.138;2023-02-20T12:47:51;15.47;;;3.73;;
16480;SDS011;44634;54.110;12.138;2023-02-20T12:50:38;10.10;;;4.00;;
16480;SDS011;44634;54.110;12.138;2023-02-20T12:53:15;9.00;;;2.77;;
16480;SDS011;44634;54.110;12.138;2023-02-20T12:55:51;6.60;;;2.60;;
16480;SDS011;44634;54.110;12.138;2023-02-20T12:58:32;9.80;;;4.47;;
16480;SDS011;44634;54.110;12.138;2023-02-20T13:01:06;11.73;;;4.87;;
16480;SDS011;44634;54.110;12.138;2023-02-20T13:03:38;11.73;;;4.40;;
16480;SDS011;44634;54.110;12.138;2023-02-20T13:06:12;10.03;;;3.47;;
16480;SDS011;44634;54.110;12.138;2023-02-20T13:08:51;10.77;;;3.10;;
16480;SDS011;44634;54.110;12.138;2023-02-20T13:11:25;13.13;;;3.80;;
16480;SDS011;44634;54.110;12.138;2023-02-20T13:14:03;9.73;;;3.77;;
16480;SDS011;44634;54.110;12.138;2023-02-20T13:16:43;10.00;;;4.23;;
16480;SDS011;44634;54.110;12.138;2023-02-20T13:19:20;5.37;;;2.90;;
16480;SDS011;44634;54.110;12.138;2023-02-20T13:21:53;7.87;;;3.23;;
16480;SDS011;44634;54.110;12.138;2023-02-20T13:24:29;19.07;;;3.57;;
16480;SDS011;44634;54.110;12.138;2023-02-20T13:26:59;9.40;;;3.17;;
16480;SDS011;44634;54.110;12.138;2023-02-20T13:29:34;15.87;;;4.43;;
16480;SDS011;44634;54.110;12.138;2023-02-20T13:32:19;6.57;;;4.00;;
16480;SDS011;44634;54.110;12.138;2023-02-20T13:34:50;4.30;;;2.70;;
16480;SDS011;44634;54.110;12.138;2023-02-20T13:40:34;11.53;;;4.13;;
16480;SDS011;44634;54.110;12.138;2023-02-20T13:46:12;13.27;;;4.63;;
16480;SDS011;44634;54.110;12.138;2023-02-20T13:48:46;11.70;;;4.93;;
16480;SDS011;44634;54.110;12.138;2023-02-20T13:51:31;9.47;;;4.13;;
16480;SDS011;44634;54.110;12.138;2023-02-20T13:54:11;7.97;;;3.33;;
16480;SDS011;44634;54.110;12.138;2023-02-20T13:56:45;7.47;;;3.60;;
16480;SDS011;44634;54.110;12.138;2023-02-20T13:59:16;3.13;;;2.77;;
16480;SDS011;44634;54.110;12.138;2023-02-20T14:02:02;9.53;;;4.13;;
16480;SDS011;44634;54.110;12.138;2023-02-20T14:04:38;10.93;;;4.63;;
16480;SDS011;44634;54.110;12.138;2023-02-20T14:07:25;11.90;;;3.93;;
16480;SDS011;44634;54.110;12.138;2023-02-20T14:10:01;12.13;;;4.70;;
16480;SDS011;44634;54.110;12.138;2023-02-20T14:12:32;9.93;;;4.37;;
16480;SDS011;44634;54.110;12.138;2023-02-20T14:15:03;8.67;;;3.50;;
16480;SDS011;44634;54.110;12.138;2023-02-20T14:17:34;6.60;;;4.07;;
16480;SDS011;44634;54.110;12.138;2023-02-20T14:20:06;8.60;;;4.80;;
16480;SDS011;44634;54.110;12.138;2023-02-20T14:22:45;10.87;;;4.30;;
16480;SDS011;44634;54.110;12.138;2023-02-20T14:25:24;8.23;;;3.60;;
16480;SDS011;44634;54.110;12.138;2023-02-20T14:28:05;5.90;;;3.93;;
16480;SDS011;44634;54.110;12.138;2023-02-20T14:30:34;12.93;;;3.53;;
16480;SDS011;44634;54.110;12.138;2023-02-20T14:33:07;16.90;;;3.40;;
16480;SDS011;44634;54.110;12.138;2023-02-20T14:35:52;8.57;;;3.43;;
16480;SDS011;44634;54.110;12.138;2023-02-20T14:38:31;10.67;;;4.20;;
16480;SDS011;44634;54.110;12.138;2023-02-20T14:41:12;6.83;;;4.13;;
16480;SDS011;44634;54.110;12.138;2023-02-20T14:43:43;8.53;;;4.13;;
16480;SDS011;44634;54.110;12.138;2023-02-20T14:46:21;5.90;;;3.20;;
16480;SDS011;44634;54.110;12.138;2023-02-20T14:49:03;7.27;;;3.63;;
16480;SDS011;44634;54.110;12.138;2023-02-20T14:51:31;6.47;;;3.63;;
16480;SDS011;44634;54.110;12.138;2023-02-20T14:54:00;12.43;;;4.27;;
16480;SDS011;44634;54.110;12.138;2023-02-20T14:56:29;7.37;;;3.47;;
16480;SDS011;44634;54.110;12.138;2023-02-20T14:59:14;9.73;;;4.43;;
16480;SDS011;44634;54.110;12.138;2023-02-20T15:01:42;9.43;;;4.87;;
16480;SDS011;44634;54.110;12.138;2023-02-20T15:04:13;11.23;;;4.60;;
16480;SDS011;44634;54.110;12.138;2023-02-20T15:06:44;7.50;;;3.47;;
16480;SDS011;44634;54.110;12.138;2023-02-20T15:09:14;12.07;;;4.00;;
16480;SDS011;44634;54.110;12.138;2023-02-20T15:11:49;8.03;;;3.30;;
16480;SDS011;44634;54.110;12.138;2023-02-20T15:14:19;4.77;;;3.33;;
16480;SDS011;44634;54.110;12.138;2023-02-20T15:19:37;8.27;;;3.20;;
16480;SDS011;44634;54.110;12.138;2023-02-20T15:22:19;7.13;;;3.93;;
16480;SDS011;44634;54.110;12.138;2023-02-20T15:24:49;8.20;;;4.17;;
16480;SDS011;44634;54.110;12.138;2023-02-20T15:27:18;7.33;;;3.57;;
16480;SDS011;44634;54.110;12.138;2023-02-20T15:32:36;5.73;;;3.67;;
16480;SDS011;44634;54.110;12.138;2023-02-20T15:35:12;8.57;;;4.03;;